createdAt,value
2019-03-29T00:07:39.351Z,7.87
2019-03-29T00:12:39.450Z,7.83
2019-03-29T00:17:45.233Z,8.13
2019-03-29T00:22:51.197Z,7.73
2019-03-29T00:27:57.172Z,7.50
2019-03-29T00:33:03.052Z,8.10
2019-03-29T00:38:08.822Z,7.53
2019-03-29T00:43:15.720Z,7.33
2019-03-29T00:48:21.967Z,8.20
2019-03-29T00:53:27.977Z,7.97
2019-03-29T00:58:34.130Z,8.03
2019-03-29T01:03:40.084Z,7.63
2019-03-29T01:08:45.871Z,7.97
2019-03-29T01:13:51.695Z,7.97
2019-03-29T01:18:57.623Z,7.97
2019-03-29T01:24:03.557Z,8.90
2019-03-29T01:29:09.373Z,7.77
2019-03-29T01:34:15.366Z,8.03
2019-03-29T01:39:21.113Z,8.07
2019-03-29T01:44:27.937Z,8.10
2019-03-29T01:49:33.873Z,7.13
2019-03-29T01:54:39.747Z,7.73
2019-03-29T01:59:45.512Z,7.47
2019-03-29T02:04:51.388Z,7.07
2019-03-29T02:09:57.263Z,7.03
2019-03-29T02:15:03.023Z,7.53
2019-03-29T02:20:09.404Z,6.67
2019-03-29T02:25:15.329Z,7.17
2019-03-29T02:30:21.992Z,6.60
2019-03-29T02:35:28.060Z,7.57
2019-03-29T02:40:33.933Z,6.63
2019-03-29T02:45:39.851Z,6.40
2019-03-29T02:50:45.654Z,6.27
2019-03-29T02:55:51.681Z,6.70
2019-03-29T03:00:57.505Z,5.73
2019-03-29T03:06:03.305Z,6.03
2019-03-29T03:11:09.149Z,6.67
2019-03-29T03:16:16.350Z,7.30
2019-03-29T03:21:23.302Z,5.60
2019-03-29T03:26:29.128Z,6.40
2019-03-29T03:31:35.006Z,6.33
2019-03-29T03:36:40.862Z,6.57
2019-03-29T03:41:46.705Z,7.60
2019-03-29T03:46:52.496Z,7.17
2019-03-29T03:51:58.809Z,6.93
2019-03-29T03:57:05.895Z,6.43
2019-03-29T04:02:11.747Z,6.17
2019-03-29T04:07:17.623Z,6.03
2019-03-29T04:12:23.546Z,7.57
2019-03-29T04:17:29.674Z,6.30
2019-03-29T04:22:35.548Z,5.87
2019-03-29T04:27:41.512Z,6.60
2019-03-29T04:32:47.442Z,7.63
2019-03-29T04:37:53.415Z,7.83
2019-03-29T04:43:00.251Z,7.17
2019-03-29T04:48:06.131Z,7.23
2019-03-29T04:53:12.040Z,7.53
2019-03-29T04:58:18.260Z,7.57
2019-03-29T05:03:24.091Z,7.13
2019-03-29T05:08:29.961Z,8.10
2019-03-29T05:13:35.902Z,8.07
2019-03-29T05:18:41.883Z,8.13
2019-03-29T05:23:47.680Z,8.13
2019-03-29T05:28:53.518Z,9.10
2019-03-29T05:33:59.436Z,8.47
2019-03-29T05:39:07.122Z,8.43
2019-03-29T05:44:12.889Z,9.10
2019-03-29T05:49:18.867Z,9.60
2019-03-29T05:54:25.234Z,10.13
2019-03-29T05:59:31.291Z,9.83
2019-03-29T06:04:37.304Z,11.23
2019-03-29T06:09:43.398Z,10.10
2019-03-29T06:14:49.412Z,10.80
2019-03-29T06:19:55.440Z,9.23
2019-03-29T06:25:01.327Z,9.33
2019-03-29T06:30:08.790Z,11.27
2019-03-29T06:35:14.700Z,10.97
2019-03-29T06:40:26.960Z,12.00
2019-03-29T06:45:46.555Z,11.27
2019-03-29T06:50:40.507Z,12.87
2019-03-29T06:55:46.641Z,11.70
2019-03-29T07:00:52.617Z,11.10
2019-03-29T07:05:58.481Z,13.00
2019-03-29T07:11:16.531Z,11.37
2019-03-29T07:16:12.056Z,11.13
2019-03-29T07:21:21.845Z,12.77
2019-03-29T07:26:25.463Z,11.20
2019-03-29T07:31:32.121Z,13.07
2019-03-29T07:36:37.996Z,12.57
2019-03-29T07:41:43.871Z,14.47
2019-03-29T07:46:49.853Z,11.43
2019-03-29T07:51:55.617Z,13.17
2019-03-29T07:57:01.394Z,13.03
2019-03-29T08:02:07.152Z,13.40
2019-03-29T08:07:26.358Z,11.77
2019-03-29T08:12:22.036Z,13.27
2019-03-29T08:17:28.468Z,12.40
2019-03-29T08:22:34.390Z,10.93
2019-03-29T08:27:41.116Z,12.80
2019-03-29T08:32:46.904Z,12.63
2019-03-29T08:37:52.859Z,13.67
2019-03-29T08:42:59.854Z,11.20
2019-03-29T08:48:06.889Z,12.73
2019-03-29T08:53:12.932Z,12.60
2019-03-29T08:58:18.759Z,12.40
2019-03-29T09:03:25.048Z,14.53
2019-03-29T09:08:30.954Z,12.80
2019-03-29T09:13:36.940Z,12.90
2019-03-29T09:18:42.999Z,13.43
2019-03-29T09:23:49.123Z,11.73
2019-03-29T09:28:55.103Z,12.00
2019-03-29T09:34:01.049Z,12.07
2019-03-29T09:39:07.967Z,12.63
2019-03-29T09:44:13.787Z,9.87
2019-03-29T09:49:19.777Z,11.13
2019-03-29T09:54:25.580Z,11.77
2019-03-29T09:59:32.578Z,11.63
2019-03-29T10:04:38.423Z,10.43
2019-03-29T10:09:44.580Z,10.70
2019-03-29T10:14:50.557Z,12.07
2019-03-29T10:19:56.502Z,10.53
2019-03-29T10:25:02.876Z,11.07
2019-03-29T10:30:10.558Z,10.33
2019-03-29T10:35:16.515Z,9.47
2019-03-29T10:40:22.425Z,8.20
2019-03-29T10:45:28.350Z,9.07
2019-03-29T10:50:34.215Z,9.83
2019-03-29T10:55:40.193Z,10.60
2019-03-29T11:00:46.268Z,10.90
2019-03-29T11:05:52.401Z,10.20
2019-03-29T11:10:58.262Z,10.33
2019-03-29T11:16:04.494Z,10.77
2019-03-29T11:21:11.122Z,11.53
2019-03-29T11:26:17.161Z,11.17
2019-03-29T11:31:25.525Z,10.53
2019-03-29T11:36:30.685Z,11.40
2019-03-29T11:41:36.723Z,12.07
2019-03-29T11:46:42.887Z,9.50
2019-03-29T11:51:48.990Z,11.70
2019-03-29T11:56:55.880Z,9.20
2019-03-29T12:02:01.937Z,9.90
2019-03-29T12:07:07.714Z,9.10
2019-03-29T12:12:13.667Z,8.67
2019-03-29T12:17:19.862Z,6.57
2019-03-29T12:22:25.731Z,6.70
2019-03-29T12:27:31.810Z,6.50
2019-03-29T12:32:37.681Z,7.67
2019-03-29T12:37:43.547Z,7.43
2019-03-29T12:42:49.486Z,6.33
2019-03-29T12:47:55.438Z,7.40
2019-03-29T12:53:01.156Z,5.93
2019-03-29T12:58:07.235Z,5.80
2019-03-29T13:03:13.134Z,6.17
2019-03-29T13:08:19.082Z,6.17
2019-03-29T13:13:24.851Z,5.97
2019-03-29T13:18:30.716Z,6.10
2019-03-29T13:23:36.599Z,5.93
2019-03-29T13:28:42.480Z,5.50
2019-03-29T13:33:48.342Z,5.57
2019-03-29T13:38:54.306Z,5.50
2019-03-29T13:44:00.188Z,5.53
2019-03-29T13:49:06.151Z,6.27
2019-03-29T13:54:12.230Z,6.70
2019-03-29T13:59:18.179Z,6.33
2019-03-29T14:04:23.978Z,6.17
2019-03-29T14:09:29.839Z,5.60
2019-03-29T14:14:38.536Z,6.13
2019-03-29T14:19:43.233Z,6.03
2019-03-29T14:24:49.093Z,6.23
2019-03-29T14:30:04.115Z,5.97
2019-03-29T14:35:08.680Z,6.30
2019-03-29T14:40:14.926Z,6.33
2019-03-29T14:45:20.707Z,5.93
2019-03-29T14:50:26.571Z,6.30
2019-03-29T14:55:32.557Z,6.13
2019-03-29T15:00:41.617Z,5.93
2019-03-29T15:05:49.185Z,5.23
2019-03-29T15:10:54.977Z,6.07
2019-03-29T15:16:00.925Z,5.00
2019-03-29T15:21:10.294Z,5.63
2019-03-29T15:26:14.719Z,6.03
2019-03-29T15:31:20.916Z,6.67
2019-03-29T15:36:28.942Z,6.07
2019-03-29T15:41:34.884Z,5.50
2019-03-29T15:46:40.756Z,6.10
2019-03-29T15:51:46.733Z,5.73
2019-03-29T15:56:52.622Z,6.50
2019-03-29T16:01:58.585Z,6.77
2019-03-29T16:07:04.481Z,6.33
2019-03-29T16:12:10.660Z,6.80
2019-03-29T16:17:16.591Z,6.03
2019-03-29T16:22:22.975Z,5.60
2019-03-29T16:27:28.846Z,5.60
2019-03-29T16:32:34.769Z,5.47
2019-03-29T16:37:41.426Z,4.77
2019-03-29T16:42:47.427Z,3.63
2019-03-29T16:47:53.403Z,4.53
2019-03-29T16:52:59.331Z,4.57
2019-03-29T16:58:05.380Z,3.90
2019-03-29T17:03:11.419Z,4.30
2019-03-29T17:08:17.431Z,4.17
2019-03-29T17:13:23.451Z,4.50
2019-03-29T17:18:29.857Z,3.73
2019-03-29T17:23:35.847Z,3.80
2019-03-29T17:28:41.728Z,2.77
2019-03-29T17:33:47.734Z,2.93
2019-03-29T17:38:57.875Z,3.03
2019-03-29T17:44:05.948Z,3.20
2019-03-29T17:49:12.694Z,3.10
2019-03-29T17:54:18.604Z,3.30
2019-03-29T17:59:24.623Z,3.13
2019-03-29T18:04:30.634Z,3.00
2019-03-29T18:09:36.406Z,2.70
2019-03-29T18:14:42.329Z,2.97
2019-03-29T18:19:48.323Z,3.47
2019-03-29T18:24:54.231Z,3.33
2019-03-29T18:30:00.378Z,2.90
2019-03-29T18:35:08.024Z,2.93
2019-03-29T18:40:22.704Z,2.90
2019-03-29T18:45:28.675Z,2.77
2019-03-29T18:50:34.643Z,2.80
2019-03-29T18:55:40.439Z,3.43
2019-03-29T19:00:46.331Z,2.70
2019-03-29T19:05:52.356Z,2.83
2019-03-29T19:10:58.228Z,3.10
2019-03-29T19:16:04.454Z,4.07
2019-03-29T19:21:11.317Z,3.37
2019-03-29T19:26:17.170Z,3.57
2019-03-29T19:31:23.155Z,3.83
2019-03-29T19:36:29.015Z,4.03
2019-03-29T19:41:34.806Z,4.47
2019-03-29T19:46:41.690Z,5.00
2019-03-29T19:51:47.561Z,4.60
2019-03-29T19:56:53.436Z,4.93
2019-03-29T20:01:59.314Z,5.53
2019-03-29T20:07:05.333Z,5.50
2019-03-29T20:12:11.257Z,6.13
2019-03-29T20:17:27.387Z,5.27
2019-03-29T20:22:24.809Z,5.97
2019-03-29T20:27:30.806Z,6.87
2019-03-29T20:32:36.842Z,7.17
2019-03-29T20:37:43.429Z,7.17
2019-03-29T20:42:50.355Z,7.87
2019-03-29T20:47:56.235Z,7.70
2019-03-29T20:53:02.225Z,8.13
2019-03-29T20:58:08.077Z,8.50
2019-03-29T21:03:14.116Z,8.73
2019-03-29T21:08:20.149Z,8.70
2019-03-29T21:13:26.066Z,8.23
2019-03-29T21:18:33.021Z,9.77
2019-03-29T21:23:39.009Z,11.33
2019-03-29T21:28:45.154Z,10.10
2019-03-29T21:33:50.997Z,10.17
2019-03-29T21:38:56.899Z,10.97
2019-03-29T21:44:02.892Z,11.80
2019-03-29T21:49:10.894Z,12.03
2019-03-29T21:54:17.283Z,11.40
2019-03-29T21:59:25.113Z,13.13
2019-03-29T22:04:31.058Z,12.10
2019-03-29T22:09:37.500Z,12.20
2019-03-29T22:14:43.729Z,12.73
2019-03-29T22:19:49.697Z,13.27
2019-03-29T22:24:55.795Z,13.53
2019-03-29T22:30:01.646Z,14.07
2019-03-29T22:35:08.503Z,13.50
2019-03-29T22:40:14.396Z,14.07
2019-03-29T22:45:20.442Z,12.93
2019-03-29T22:50:26.296Z,10.97
2019-03-29T22:55:32.321Z,12.80
2019-03-29T23:00:42.704Z,13.10
2019-03-29T23:05:49.442Z,13.97
2019-03-29T23:10:55.417Z,14.17
2019-03-29T23:16:02.821Z,14.80
2019-03-29T23:21:08.855Z,16.33
2019-03-29T23:26:14.663Z,16.37
2019-03-29T23:31:20.594Z,17.63
2019-03-29T23:36:26.625Z,17.27
2019-03-29T23:41:32.648Z,18.50
2019-03-29T23:46:38.724Z,18.13
2019-03-29T23:51:44.598Z,18.60
2019-03-29T23:56:50.639Z,17.70
